Time;durP1;ratioP1;P1;durP2;ratioP2;P2;SDS_P1;SDS_P2;PMS_P1;PMS_P2;Temp;Humidity;BMP_temperature;BMP_pressure;BME280_temperature;BME280_humidity;BME280_pressure;Samples;Min_cycle;Max_cycle;Signal;HPM_P1;HPM_P2
2023/07/11 00:01:37;;;;;;;9.03;6.60;;;17.20;99.90;;;;;;1899382;75;25322;-88
2023/07/11 00:04:25;;;;;;;7.73;6.33;;;17.20;99.90;;;;;;1877350;75;25220;-88
2023/07/11 00:07:14;;;;;;;8.17;6.33;;;17.10;99.90;;;;;;1889394;75;25630;-88
2023/07/11 00:10:04;;;;;;;14.70;6.63;;;17.10;99.90;;;;;;1894082;75;25205;-88
2023/07/11 00:12:52;;;;;;;10.03;6.33;;;17.10;99.90;;;;;;1883407;75;25320;-88
2023/07/11 00:15:41;;;;;;;9.73;6.73;;;17.10;99.90;;;;;;1882235;75;25795;-89
2023/07/11 00:18:30;;;;;;;12.30;6.23;;;17.00;99.90;;;;;;1877236;75;25293;-89
2023/07/11 00:21:19;;;;;;;8.93;5.77;;;17.00;99.90;;;;;;1879605;75;25219;-89
2023/07/11 00:24:10;;;;;;;8.50;5.70;;;17.00;99.90;;;;;;1881899;75;26655;-89
2023/07/11 00:29:52;;;;;;;6.37;4.90;;;16.90;99.90;;;;;;1954902;72;27074;-89
2023/07/11 00:32:41;;;;;;;7.00;4.80;;;16.90;99.90;;;;;;1915860;73;25171;-89
2023/07/11 00:35:30;;;;;;;9.63;4.77;;;16.90;99.90;;;;;;1919777;73;25221;-89
2023/07/11 00:38:19;;;;;;;6.90;5.07;;;16.80;99.90;;;;;;1904100;74;25241;-89
2023/07/11 00:41:08;;;;;;;10.53;4.90;;;16.80;99.90;;;;;;1905625;74;25341;-89
2023/07/11 00:49:17;;;;;;;7.40;5.70;;;16.80;99.90;;;;;;1978012;71;27393;-88
2023/07/11 00:52:07;;;;;;;7.77;5.00;;;17.00;99.90;;;;;;1954586;72;25640;-89
2023/07/11 00:55:00;;;;;;;10.20;4.87;;;17.00;99.90;;;;;;2031267;69;25322;-89
2023/07/11 00:57:49;;;;;;;7.40;5.53;;;17.00;99.90;;;;;;2033270;69;25165;-89
2023/07/11 01:00:38;;;;;;;5.50;3.90;;;17.10;99.90;;;;;;2041423;69;25261;-90
2023/07/11 01:03:26;;;;;;;5.40;3.47;;;17.10;99.90;;;;;;2050014;69;25680;-89
2023/07/11 01:06:18;;;;;;;4.87;4.23;;;17.20;99.90;;;;;;2046342;69;25151;-89
2023/07/11 01:09:07;;;;;;;6.33;3.97;;;17.20;99.90;;;;;;2063347;69;25747;-89
2023/07/11 01:11:59;;;;;;;5.67;4.13;;;17.20;99.90;;;;;;2047525;69;25251;-89
2023/07/11 01:14:50;;;;;;;6.10;3.30;;;17.20;99.90;;;;;;2045404;69;25648;-89
2023/07/11 01:17:39;;;;;;;4.90;3.60;;;17.20;99.90;;;;;;2060909;69;25226;-89
2023/07/11 01:23:14;;;;;;;5.43;3.40;;;17.20;99.90;;;;;;1959970;72;27039;-89
2023/07/11 01:26:03;;;;;;;8.20;4.30;;;17.30;99.90;;;;;;1937764;73;25234;-88
2023/07/11 01:28:52;;;;;;;5.10;4.13;;;17.20;99.90;;;;;;1916382;73;25291;-89
2023/07/11 01:34:30;;;;;;;7.20;3.60;;;17.20;99.90;;;;;;1950132;72;26912;-89
2023/07/11 01:37:19;;;;;;;6.60;3.90;;;17.20;99.90;;;;;;1918330;72;25332;-89
2023/07/11 01:40:10;;;;;;;4.70;3.70;;;17.10;99.90;;;;;;1916395;73;25267;-89
2023/07/11 01:42:59;;;;;;;5.30;4.00;;;17.10;99.90;;;;;;1923812;73;25205;-89
2023/07/11 01:45:47;;;;;;;5.20;3.70;;;17.00;99.90;;;;;;1898472;73;25210;-89
2023/07/11 01:52:26;;;;;;;11.37;4.40;;;17.00;99.90;;;;;;1977006;71;27055;-88
2023/07/11 01:55:15;;;;;;;5.47;3.67;;;17.00;99.90;;;;;;1962450;72;25224;-88
2023/07/11 01:58:04;;;;;;;6.37;3.83;;;16.90;99.90;;;;;;2034616;69;25206;-89
2023/07/11 02:00:52;;;;;;;10.40;4.47;;;16.80;99.90;;;;;;2062182;69;25215;-88
2023/07/11 02:03:42;;;;;;;7.07;4.30;;;16.90;99.90;;;;;;2048087;69;25214;-88
2023/07/11 02:06:31;;;;;;;5.17;4.47;;;16.80;99.90;;;;;;2038874;69;25275;-89
2023/07/11 02:09:20;;;;;;;7.50;4.90;;;16.90;99.90;;;;;;2019888;69;25252;-89
2023/07/11 02:12:11;;;;;;;7.87;4.53;;;16.80;99.90;;;;;;2037863;69;25237;-89
2023/07/11 02:17:40;;;;;;;8.23;4.87;;;16.80;99.90;;;;;;1950357;72;28422;-89
2023/07/11 02:20:29;;;;;;;7.60;5.57;;;16.80;99.90;;;;;;1935522;73;25268;-89
2023/07/11 02:23:18;;;;;;;6.63;4.73;;;16.80;99.90;;;;;;1892773;75;25274;-89
2023/07/11 02:26:06;;;;;;;9.23;4.63;;;16.80;99.90;;;;;;1881872;75;25162;-89
2023/07/11 02:28:55;;;;;;;6.07;5.03;;;16.80;99.90;;;;;;1858899;76;25664;-89
2023/07/11 02:31:44;;;;;;;6.93;5.30;;;16.70;99.90;;;;;;1863287;76;26498;-89
2023/07/11 02:34:33;;;;;;;10.40;5.17;;;16.80;99.90;;;;;;1909647;75;25161;-89
2023/07/11 02:37:21;;;;;;;7.40;5.00;;;16.80;99.90;;;;;;1888832;75;25264;-89
2023/07/11 02:40:11;;;;;;;6.70;5.77;;;16.80;99.90;;;;;;1871768;75;25327;-88
2023/07/11 02:43:00;;;;;;;7.10;5.50;;;16.70;99.90;;;;;;1835772;77;25632;-89
2023/07/11 02:48:32;;;;;;;9.37;5.73;;;16.80;99.90;;;;;;1910707;74;27507;-87
2023/07/11 02:51:21;;;;;;;12.70;5.80;;;16.80;99.90;;;;;;1864631;76;25238;-88
2023/07/11 02:54:09;;;;;;;8.40;5.30;;;16.80;99.90;;;;;;1862525;76;25212;-90
2023/07/11 02:56:58;;;;;;;9.60;5.23;;;16.80;99.90;;;;;;1852721;76;25780;-89
2023/07/11 03:02:28;;;;;;;7.57;5.43;;;16.80;99.90;;;;;;1951316;72;27368;-89
2023/07/11 03:08:06;;;;;;;9.63;5.23;;;16.90;99.90;;;;;;1942056;72;26893;-88
2023/07/11 03:10:58;;;;;;;7.43;5.23;;;16.80;99.90;;;;;;1915299;72;25215;-88
2023/07/11 03:13:47;;;;;;;6.03;5.40;;;16.80;99.90;;;;;;1944458;73;25174;-88
2023/07/11 03:16:36;;;;;;;7.50;5.43;;;16.80;99.90;;;;;;1932970;73;25591;-89
2023/07/11 03:19:24;;;;;;;7.17;5.27;;;16.80;99.90;;;;;;1939114;72;25216;-88
2023/07/11 03:22:13;;;;;;;8.80;5.07;;;16.80;99.90;;;;;;1940916;72;25728;-87
2023/07/11 03:25:01;;;;;;;7.40;5.10;;;16.70;99.90;;;;;;1935262;73;25262;-88
2023/07/11 03:41:48;;;;;;;11.33;5.60;;;16.60;99.90;;;;;;1903944;73;26373;-88
2023/07/11 03:47:51;;;;;;;7.47;5.30;;;16.70;99.90;;;;;;1995686;71;26388;-88
2023/07/11 04:18:12;;;;;;;6.93;5.00;;;17.00;99.90;;;;;;1846576;76;27209;-90
2023/07/11 04:24:46;;;;;;;7.17;5.50;;;16.90;99.90;;;;;;1960527;72;27720;-89
2023/07/11 04:27:35;;;;;;;10.50;5.60;;;16.90;99.90;;;;;;1939343;73;25249;-89
2023/07/11 04:30:24;;;;;;;7.70;5.57;;;16.90;99.90;;;;;;2018990;70;25339;-89
2023/07/11 04:33:12;;;;;;;8.50;5.13;;;16.90;99.90;;;;;;2006315;70;25232;-89
2023/07/11 04:38:53;;;;;;;6.53;5.37;;;16.90;99.90;;;;;;1958107;72;27145;-89
2023/07/11 04:44:56;;;;;;;6.60;5.33;;;17.00;99.90;;;;;;2035786;69;27067;-90
2023/07/11 04:50:26;;;;;;;8.90;5.87;;;17.00;99.90;;;;;;1937101;72;27293;-89
2023/07/11 04:53:15;;;;;;;9.90;5.60;;;17.00;99.90;;;;;;1900046;75;25239;-89
2023/07/11 04:56:05;;;;;;;6.83;5.40;;;17.00;99.90;;;;;;1905923;75;25224;-89
2023/07/11 04:58:53;;;;;;;8.57;5.67;;;17.00;99.90;;;;;;1895075;75;25228;-89
2023/07/11 05:01:41;;;;;;;10.47;5.50;;;17.10;99.90;;;;;;1898058;75;25317;-89
2023/07/11 05:04:30;;;;;;;8.30;5.80;;;17.10;99.90;;;;;;1897881;75;25683;-89
2023/07/11 05:07:18;;;;;;;8.37;5.83;;;17.10;99.90;;;;;;1895081;75;25199;-89
2023/07/11 05:10:08;;;;;;;9.10;5.83;;;17.10;99.90;;;;;;1831379;77;25201;-89
2023/07/11 05:12:56;;;;;;;9.83;6.30;;;17.10;99.90;;;;;;1902092;75;25197;-89
2023/07/11 05:15:45;;;;;;;12.07;5.60;;;17.00;99.90;;;;;;1887208;75;25204;-88
2023/07/11 05:18:37;;;;;;;10.30;5.70;;;17.10;99.90;;;;;;1849682;76;25810;-88
2023/07/11 05:21:25;;;;;;;8.87;5.93;;;17.10;99.90;;;;;;1893939;75;25323;-89
2023/07/11 05:24:15;;;;;;;10.37;6.47;;;17.10;99.90;;;;;;1898110;75;25726;-88
2023/07/11 05:27:04;;;;;;;13.13;5.83;;;17.10;99.90;;;;;;1862856;76;26463;-88
2023/07/11 05:29:53;;;;;;;7.87;5.33;;;17.20;99.90;;;;;;1898696;75;25242;-88
2023/07/11 05:32:41;;;;;;;9.17;6.20;;;17.20;99.90;;;;;;1894483;75;25774;-88
2023/07/11 05:35:30;;;;;;;9.07;5.27;;;17.20;99.90;;;;;;1902416;75;25784;-88
2023/07/11 05:38:19;;;;;;;6.67;4.77;;;17.40;99.90;;;;;;1894205;75;25247;-89
2023/07/11 05:43:52;;;;;;;8.70;5.83;;;17.30;99.90;;;;;;1943599;72;27059;-88
2023/07/11 05:49:27;;;;;;;9.33;5.67;;;17.30;99.90;;;;;;1931291;72;27575;-89
2023/07/11 05:52:16;;;;;;;8.83;5.80;;;17.40;99.90;;;;;;1898670;75;25739;-88
2023/07/11 05:55:06;;;;;;;8.47;5.57;;;17.40;99.90;;;;;;1893090;75;25425;-88
2023/07/11 05:57:54;;;;;;;11.37;6.27;;;17.40;99.90;;;;;;1902856;75;25221;-88
2023/07/11 06:00:44;;;;;;;9.83;6.27;;;17.40;99.90;;;;;;1902997;75;25215;-89
2023/07/11 06:03:33;;;;;;;8.70;6.07;;;17.50;99.90;;;;;;1907551;75;25952;-87
2023/07/11 06:06:41;;;;;;;11.67;6.23;;;17.50;99.90;;;;;;1908391;75;25213;-88
2023/07/11 06:09:26;;;;;;;8.83;6.23;;;17.50;99.90;;;;;;1904949;74;25223;-88
2023/07/11 06:15:00;;;;;;;8.40;5.20;;;17.60;99.90;;;;;;1948754;72;27001;-89
2023/07/11 06:22:34;;;;;;;8.90;6.63;;;17.70;99.90;;;;;;1992942;71;26250;-88
2023/07/11 06:25:23;;;;;;;9.87;6.23;;;17.70;99.90;;;;;;1960858;72;26125;-89
2023/07/11 06:32:31;;;;;;;10.47;7.00;;;17.50;99.90;;;;;;2015755;69;27087;-89
2023/07/11 06:35:19;;;;;;;8.53;6.80;;;17.50;99.90;;;;;;2014000;71;25844;-89
2023/07/11 06:38:08;;;;;;;11.17;6.70;;;17.50;99.90;;;;;;1985379;71;25741;-89
2023/07/11 06:40:58;;;;;;;7.17;6.30;;;17.40;99.90;;;;;;1992695;69;25258;-89
2023/07/11 06:43:47;;;;;;;9.80;6.57;;;17.30;99.90;;;;;;1965179;72;25669;-89
2023/07/11 06:46:35;;;;;;;11.77;6.83;;;17.20;99.90;;;;;;1985974;72;25185;-89
2023/07/11 06:49:24;;;;;;;15.07;6.93;;;17.10;99.90;;;;;;1968594;72;25170;-89
2023/07/11 06:52:13;;;;;;;9.67;6.73;;;17.10;99.90;;;;;;1989963;72;25183;-89
2023/07/11 06:55:01;;;;;;;16.23;7.43;;;17.10;99.90;;;;;;1960515;72;25251;-89
2023/07/11 06:57:50;;;;;;;13.13;7.10;;;17.10;99.90;;;;;;1979420;72;25186;-90
2023/07/11 07:00:55;;;;;;;9.73;7.00;;;17.10;99.90;;;;;;1976134;72;25669;-89
2023/07/11 07:03:55;;;;;;;17.57;7.40;;;17.10;99.90;;;;;;1970411;72;25299;-88
2023/07/11 07:10:01;;;;;;;11.43;7.20;;;17.10;99.90;;;;;;1990615;71;27208;-89
2023/07/11 07:12:50;;;;;;;11.10;6.77;;;17.10;99.90;;;;;;1942271;72;25343;-89
2023/07/11 07:15:39;;;;;;;9.47;6.60;;;17.20;99.90;;;;;;1940566;72;25234;-87
2023/07/11 07:32:12;;;;;;;10.03;6.03;;;17.30;99.90;;;;;;1952018;72;27080;-88
2023/07/11 07:48:46;;;;;;;9.30;5.67;;;17.90;99.90;;;;;;1953765;72;28202;-87
2023/07/11 08:11:08;;;;;;;9.17;5.47;;;17.80;99.90;;;;;;1930634;72;27512;-88
2023/07/11 08:29:45;;;;;;;7.50;4.70;;;17.50;99.90;;;;;;1997069;71;26319;-88
2023/07/11 08:50:37;;;;;;;6.03;4.10;;;19.20;99.90;;;;;;1940532;72;26884;-89
2023/07/11 08:53:29;;;;;;;5.83;4.10;;;19.20;99.90;;;;;;1946353;73;25209;-89
2023/07/11 08:56:22;;;;;;;5.30;4.10;;;19.10;99.90;;;;;;1937569;73;25222;-89
2023/07/11 08:59:14;;;;;;;6.23;4.20;;;19.10;99.90;;;;;;1935730;73;25284;-89
2023/07/11 09:02:08;;;;;;;7.57;4.23;;;19.10;99.90;;;;;;1894053;75;25724;-89
2023/07/11 09:04:58;;;;;;;7.60;4.63;;;19.10;99.90;;;;;;1894853;75;25299;-89
2023/07/11 09:07:47;;;;;;;8.27;4.50;;;19.30;99.90;;;;;;1856289;75;25690;-89
2023/07/11 09:10:42;;;;;;;4.70;4.17;;;19.20;99.90;;;;;;1887388;75;25217;-89
2023/07/11 09:13:44;;;;;;;8.17;4.50;;;19.10;99.90;;;;;;1878413;75;25315;-89
2023/07/11 09:16:39;;;;;;;7.87;4.17;;;18.80;99.90;;;;;;1875525;76;25228;-88
2023/07/11 09:19:35;;;;;;;5.33;3.90;;;18.90;99.90;;;;;;1846650;77;25767;-89
2023/07/11 09:22:26;;;;;;;4.63;4.10;;;19.10;99.90;;;;;;1888261;74;25232;-89
2023/07/11 09:25:17;;;;;;;8.07;4.20;;;19.20;99.90;;;;;;1881002;75;25240;-89
2023/07/11 09:28:09;;;;;;;7.80;3.70;;;19.20;99.90;;;;;;1875069;75;25852;-89
2023/07/11 09:47:35;;;;;;;5.43;2.97;;;19.60;99.90;;;;;;1945030;72;27094;-89
2023/07/11 10:02:05;;;;;;;4.13;2.00;;;19.70;99.90;;;;;;1901817;74;25751;-89
2023/07/11 10:04:57;;;;;;;3.37;2.37;;;19.80;99.90;;;;;;1910168;73;25669;-89
2023/07/11 10:07:47;;;;;;;5.13;2.40;;;19.70;99.90;;;;;;1883478;75;25273;-90
2023/07/11 10:10:36;;;;;;;4.70;2.50;;;19.70;99.90;;;;;;1926476;74;25255;-90
2023/07/11 10:13:25;;;;;;;2.87;2.57;;;19.50;99.90;;;;;;1901997;73;25287;-90
2023/07/11 10:18:53;;;;;;;3.07;2.07;;;19.90;99.90;;;;;;1930367;72;26994;-90
2023/07/11 10:27:24;;;;;;;2.73;2.33;;;20.30;99.90;;;;;;2027809;70;26557;-89
2023/07/11 10:32:59;;;;;;;3.53;2.10;;;21.00;99.90;;;;;;1914510;72;27014;-90
2023/07/11 10:35:52;;;;;;;2.33;2.13;;;21.30;99.90;;;;;;1904791;74;25643;-89
2023/07/11 10:38:51;;;;;;;4.73;2.70;;;21.00;99.90;;;;;;1915701;73;25176;-89
2023/07/11 10:44:32;;;;;;;5.80;2.37;;;21.40;99.90;;;;;;1947020;72;27027;-90
2023/07/11 10:47:24;;;;;;;7.20;3.00;;;21.50;99.90;;;;;;1917163;73;25261;-90
2023/07/11 10:50:26;;;;;;;3.93;2.13;;;21.50;99.90;;;;;;1920175;73;25766;-90
2023/07/11 10:53:20;;;;;;;3.23;2.30;;;21.70;99.90;;;;;;1917047;73;25271;-90
2023/07/11 10:56:12;;;;;;;2.60;2.40;;;21.80;99.90;;;;;;1916982;73;25289;-90
2023/07/11 10:59:02;;;;;;;4.83;2.73;;;22.10;99.90;;;;;;1916824;73;25320;-89
2023/07/11 11:04:46;;;;;;;4.57;2.80;;;22.50;99.90;;;;;;1930763;72;27072;-90
2023/07/11 11:07:38;;;;;;;5.93;2.67;;;22.40;99.90;;;;;;1849546;76;25677;-89
2023/07/11 11:10:33;;;;;;;4.17;2.57;;;22.70;99.90;;;;;;1843350;77;25285;-89
2023/07/11 11:16:12;;;;;;;3.53;2.70;;;22.60;99.90;;;;;;1972034;71;27059;-89
2023/07/11 11:33:35;;;;;;;7.07;2.83;;;21.70;99.90;;;;;;1973364;71;26837;-89
2023/07/11 11:39:25;;;;;;;4.90;2.70;;;21.10;99.90;;;;;;1957301;72;26973;-89
2023/07/11 11:42:20;;;;;;;4.63;2.67;;;21.00;99.90;;;;;;1886170;74;25720;-89
2023/07/11 11:48:03;;;;;;;4.47;2.57;;;21.40;99.90;;;;;;1961921;72;27021;-89
2023/07/11 11:50:53;;;;;;;4.77;2.87;;;21.80;99.90;;;;;;1918271;73;25204;-89
2023/07/11 11:53:44;;;;;;;5.63;2.60;;;21.90;99.90;;;;;;1917665;73;25239;-89
2023/07/11 11:56:36;;;;;;;5.07;2.60;;;21.90;99.90;;;;;;1937427;73;25634;-90
2023/07/11 11:59:27;;;;;;;6.10;2.90;;;21.60;99.90;;;;;;1920859;73;25262;-89
2023/07/11 12:02:19;;;;;;;3.23;2.47;;;21.80;99.90;;;;;;1928675;73;25820;-90
2023/07/11 12:05:19;;;;;;;4.87;2.70;;;21.70;99.90;;;;;;1918277;73;25238;-89
2023/07/11 12:08:28;;;;;;;3.53;2.73;;;21.60;99.90;;;;;;1935355;73;25234;-89
2023/07/11 12:11:33;;;;;;;5.57;2.60;;;21.50;99.90;;;;;;1937515;73;25223;-89
2023/07/11 12:14:28;;;;;;;4.73;2.30;;;21.60;99.90;;;;;;1923933;73;25302;-89
2023/07/11 12:20:39;;;;;;;6.47;2.53;;;21.70;99.90;;;;;;1948739;72;26873;-90
2023/07/11 12:39:51;;;;;;;10.07;3.10;;;21.70;99.90;;;;;;1942029;72;27041;-89
2023/07/11 12:45:38;;;;;;;3.77;2.80;;;21.70;99.90;;;;;;1942797;72;26605;-90
2023/07/11 12:48:29;;;;;;;3.87;2.90;;;21.90;99.90;;;;;;1917888;73;25754;-90
2023/07/11 12:51:27;;;;;;;4.83;2.80;;;21.70;99.90;;;;;;1933123;72;25198;-89
2023/07/11 12:54:20;;;;;;;4.30;2.97;;;21.60;99.90;;;;;;1944677;73;25222;-89
2023/07/11 12:57:15;;;;;;;4.17;3.10;;;21.60;99.90;;;;;;1940470;73;25228;-90
2023/07/11 13:04:30;;;;;;;4.10;3.17;;;21.30;99.90;;;;;;2026283;69;26093;-89
2023/07/11 13:10:08;;;;;;;6.43;2.80;;;21.10;99.90;;;;;;1928960;72;28620;-89
2023/07/11 13:12:59;;;;;;;5.23;2.77;;;21.30;99.90;;;;;;1907932;73;25186;-89
2023/07/11 13:15:47;;;;;;;3.83;3.10;;;21.40;99.90;;;;;;1911747;73;25206;-90
2023/07/11 13:18:39;;;;;;;5.70;3.30;;;21.30;99.90;;;;;;1869636;75;25714;-90
2023/07/11 13:21:28;;;;;;;5.30;3.10;;;21.30;99.90;;;;;;1839282;76;25260;-90
2023/07/11 13:24:21;;;;;;;6.80;3.00;;;21.00;99.90;;;;;;1872902;76;25763;-90
2023/07/11 13:30:01;;;;;;;7.03;2.83;;;20.80;99.90;;;;;;1928400;72;27058;-89
2023/07/11 13:32:55;;;;;;;4.50;2.83;;;20.70;99.90;;;;;;1912747;75;25781;-90
2023/07/11 13:35:54;;;;;;;5.17;2.83;;;20.90;99.90;;;;;;1874884;76;25669;-89
2023/07/11 13:38:47;;;;;;;6.67;3.20;;;20.80;99.90;;;;;;1910101;73;25195;-90
2023/07/11 13:41:39;;;;;;;3.67;3.03;;;20.80;99.90;;;;;;1862203;76;25336;-89
2023/07/11 13:47:25;;;;;;;5.73;2.87;;;20.90;99.90;;;;;;1943969;72;26980;-90
2023/07/11 13:53:07;;;;;;;5.60;3.10;;;20.80;99.90;;;;;;1930653;72;27071;-89
2023/07/11 13:55:56;;;;;;;7.87;3.10;;;20.70;99.90;;;;;;1920166;73;25243;-90
2023/07/11 13:58:46;;;;;;;7.43;3.40;;;20.80;99.90;;;;;;1919615;73;25262;-90
2023/07/11 14:01:37;;;;;;;7.03;3.27;;;20.80;99.90;;;;;;1913448;73;25220;-90
2023/07/11 14:07:19;;;;;;;5.83;2.80;;;20.80;99.90;;;;;;1912264;72;26720;-88
2023/07/11 14:10:17;;;;;;;5.77;2.83;;;20.70;99.90;;;;;;1902768;73;25347;-91
2023/07/11 14:15:58;;;;;;;6.20;2.93;;;20.60;99.90;;;;;;1939980;72;27440;-90
2023/07/11 14:35:16;;;;;;;4.23;3.00;;;20.50;99.90;;;;;;1930850;72;27037;-89
2023/07/11 14:38:09;;;;;;;4.73;3.00;;;20.50;99.90;;;;;;1913779;73;25192;-89
2023/07/11 14:40:58;;;;;;;10.77;3.50;;;20.50;99.90;;;;;;1860722;76;25295;-89
2023/07/11 14:46:39;;;;;;;10.17;3.00;;;20.50;99.90;;;;;;1950951;72;27012;-89
2023/07/11 19:21:15;;;;;;;11.37;4.30;;;18.40;99.90;;;;;;1853836;76;25608;-89
2023/07/11 19:50:47;;;;;;;7.77;4.23;;;18.20;99.90;;;;;;1949305;72;28304;-90
2023/07/11 20:44:54;;;;;;;7.23;3.10;;;18.20;99.90;;;;;;1947157;72;27116;-89
2023/07/11 20:52:14;;;;;;;6.60;2.90;;;18.10;99.90;;;;;;1913046;73;25195;-89
2023/07/11 20:59:34;;;;;;;4.73;2.40;;;18.00;99.90;;;;;;1925204;74;25270;-89
2023/07/11 21:06:41;;;;;;;11.97;2.10;;;17.70;99.90;;;;;;1990157;71;27682;-88
2023/07/11 21:09:33;;;;;;;5.37;2.20;;;17.70;99.90;;;;;;1966298;72;25252;-89
2023/07/11 21:12:36;;;;;;;4.83;2.20;;;17.60;99.90;;;;;;1999208;69;25232;-89
2023/07/11 21:15:34;;;;;;;3.87;2.30;;;17.60;99.90;;;;;;2038250;69;25143;-89
2023/07/11 21:18:24;;;;;;;3.33;2.10;;;17.50;99.90;;;;;;2049568;69;25826;-89
2023/07/11 21:28:13;;;;;;;3.63;2.20;;;17.30;99.90;;;;;;1885684;75;26464;-89
2023/07/11 21:34:29;;;;;;;2.37;1.87;;;17.30;99.90;;;;;;1963910;72;27131;-89
2023/07/11 21:37:20;;;;;;;6.80;2.20;;;17.40;99.90;;;;;;1992106;72;25231;-89
2023/07/11 21:40:22;;;;;;;5.07;2.00;;;17.40;99.90;;;;;;1997251;72;25214;-89
2023/07/11 21:43:11;;;;;;;7.20;2.20;;;17.40;99.90;;;;;;1958649;73;25220;-89
2023/07/11 21:46:00;;;;;;;4.13;2.13;;;17.50;99.90;;;;;;1944716;73;25208;-89
2023/07/11 22:05:17;;;;;;;5.10;2.20;;;17.60;99.90;;;;;;1974063;71;26325;-88
2023/07/11 22:08:07;;;;;;;3.13;2.00;;;17.60;99.90;;;;;;2020450;70;25198;-89
2023/07/11 22:11:04;;;;;;;5.07;2.47;;;17.60;99.90;;;;;;2021497;69;25354;-89
